Empress, Canada
Current Conditions -  °F | °C
As of 6:00 AM on Thursday 30 Oct 2014 (Local Time) from CYKY Reporting Station
Overcast Overcast  
Wind Chill: 23°   Ceiling: 500
Heat Index: 30°   Visibility: 12mi
Dew Point: 28°   Wind: 7mph
Humidity: 93%   Direction: 110°ESE
Pressure: 30.33"   Gusts: NA
Location:  50.97°N, 110.02°W
Report Text: CYKY 301200Z 11006KT 12SM OVC005 M01/M02 A3033 RMK ST8 SLP302
Loading
Personal Weather Stations






























Interactive Weather Map
Tropical Storm Tracking
New forecast layout! Learn more

10-Day Weather Forecast

Advertisements
Track Severe Weather on mobile